Time;durP1;ratioP1;P1;durP2;ratioP2;P2;SDS_P1;SDS_P2;PMS_P1;PMS_P2;Temp;Humidity;BMP_temperature;BMP_pressure;BME280_temperature;BME280_humidity;BME280_pressure;Samples;Min_cycle;Max_cycle;Signal;HPM_P1;HPM_P2
2022/03/23 00:01:09;;;;;;;13.43;5.03;;;;;;;6.75;50.85;101138.28;5095835;28;20073;-77
2022/03/23 00:03:35;;;;;;;33.00;8.57;;;;;;;6.80;51.21;101138.81;5095280;28;20303;-77
2022/03/23 00:06:01;;;;;;;22.05;6.72;;;;;;;6.87;51.02;101134.81;5095582;28;20322;-75
2022/03/23 00:08:27;;;;;;;19.83;6.47;;;;;;;6.68;51.65;101140.50;5096602;28;20108;-78
2022/03/23 00:10:52;;;;;;;15.30;5.50;;;;;;;6.83;51.04;101146.50;5094484;28;20353;-77
2022/03/23 00:13:17;;;;;;;20.00;5.57;;;;;;;6.77;50.97;101146.94;5088134;28;20039;-77
2022/03/23 00:15:43;;;;;;;15.90;5.00;;;;;;;6.98;50.09;101143.69;5084901;28;20035;-75
2022/03/23 00:18:09;;;;;;;23.80;6.45;;;;;;;6.95;50.68;101154.44;5082543;28;20051;-77
2022/03/23 00:20:34;;;;;;;40.78;8.73;;;;;;;6.84;50.46;101151.69;5086147;28;20039;-76
2022/03/23 00:23:00;;;;;;;15.45;5.63;;;;;;;6.62;51.45;101149.66;5087292;28;20027;-76
2022/03/23 00:25:26;;;;;;;17.75;6.05;;;;;;;6.12;52.35;101141.59;5083933;28;20099;-76
2022/03/23 00:27:51;;;;;;;23.05;5.47;;;;;;;6.63;51.80;101158.38;5082999;28;20066;-75
2022/03/23 00:30:17;;;;;;;14.52;5.78;;;;;;;6.24;52.59;101139.03;5086660;28;20210;-77
2022/03/23 00:32:43;;;;;;;15.45;5.93;;;;;;;6.01;52.91;101152.78;5083641;28;20338;-75
2022/03/23 00:35:09;;;;;;;17.98;5.30;;;;;;;5.73;54.18;101138.75;5081553;28;20024;-75
2022/03/23 00:37:35;;;;;;;21.00;6.55;;;;;;;5.83;54.19;101153.94;5080111;28;20296;-77
2022/03/23 00:40:01;;;;;;;24.55;6.35;;;;;;;5.92;53.69;101148.13;5086832;28;20036;-75
2022/03/23 00:42:26;;;;;;;29.25;9.02;;;;;;;6.21;53.23;101136.56;5082609;28;20040;-75
2022/03/23 00:44:51;;;;;;;23.38;6.95;;;;;;;6.28;52.67;101122.09;5082416;28;20091;-76
2022/03/23 00:47:17;;;;;;;18.48;5.07;;;;;;;6.25;52.67;101135.44;5083589;28;20560;-77
2022/03/23 00:49:43;;;;;;;16.92;5.68;;;;;;;6.14;53.41;101140.53;5084874;28;20028;-76
2022/03/23 00:52:10;;;;;;;23.02;5.88;;;;;;;5.96;52.92;101139.09;5086640;28;20035;-75
2022/03/23 00:54:36;;;;;;;16.83;6.40;;;;;;;5.58;54.02;101139.72;5083103;28;20028;-75
2022/03/23 00:57:06;;;;;;;14.57;6.13;;;;;;;5.84;53.76;101132.81;5080803;28;20051;-76
2022/03/23 00:59:32;;;;;;;21.20;7.13;;;;;;;5.71;54.03;101126.66;5081164;28;20028;-75
2022/03/23 01:01:58;;;;;;;23.25;8.20;;;;;;;5.89;53.63;101114.13;5082553;28;20285;-77
2022/03/23 01:04:24;;;;;;;26.85;9.18;;;;;;;6.11;52.55;101116.22;5082237;28;20054;-76
2022/03/23 01:06:52;;;;;;;19.23;7.95;;;;;;;5.94;53.19;101133.94;5083557;28;20028;-75
2022/03/23 01:09:22;;;;;;;18.63;7.05;;;;;;;6.06;52.45;101127.03;5083278;28;20036;-77
2022/03/23 01:11:51;;;;;;;16.40;6.00;;;;;;;5.77;53.38;101132.34;5082658;28;20346;-75
2022/03/23 01:14:17;;;;;;;18.33;5.50;;;;;;;6.06;52.41;101127.03;5082540;28;20128;-76
2022/03/23 01:16:43;;;;;;;16.33;5.28;;;;;;;5.60;53.42;101122.06;5086427;28;20024;-77
2022/03/23 01:19:09;;;;;;;18.30;5.43;;;;;;;5.62;53.64;101114.09;5082393;28;20036;-78
2022/03/23 01:21:36;;;;;;;17.02;5.68;;;;;;;5.33;53.92;101108.03;5079512;28;20099;-76
2022/03/23 01:24:02;;;;;;;27.70;8.43;;;;;;;5.66;53.09;101118.22;5081660;28;20047;-76
2022/03/23 01:26:28;;;;;;;18.60;6.00;;;;;;;5.57;53.31;101124.88;5082654;28;20303;-75
2022/03/23 01:28:53;;;;;;;25.95;6.82;;;;;;;5.47;53.75;101110.66;5082043;28;20024;-75
2022/03/23 01:31:19;;;;;;;14.00;5.18;;;;;;;5.13;54.34;101103.97;5083765;28;20074;-75
2022/03/23 01:33:44;;;;;;;22.88;6.40;;;;;;;5.13;54.30;101112.69;5082320;28;20040;-77
2022/03/23 01:36:10;;;;;;;21.85;7.20;;;;;;;4.98;55.01;101124.13;5085634;28;20090;-75
2022/03/23 01:38:36;;;;;;;22.77;8.20;;;;;;;4.78;55.55;101114.84;5082809;28;20025;-77
2022/03/23 01:41:02;;;;;;;24.83;7.15;;;;;;;4.97;55.08;101117.19;5083159;28;20305;-76
2022/03/23 01:43:29;;;;;;;23.50;6.28;;;;;;;5.10;54.88;101122.53;5085681;28;20024;-76
2022/03/23 01:45:54;;;;;;;18.88;6.28;;;;;;;4.73;55.24;101113.44;5082541;28;20032;-76
2022/03/23 01:48:20;;;;;;;17.15;5.70;;;;;;;4.62;56.27;101137.66;5081744;28;20035;-75
2022/03/23 01:50:46;;;;;;;22.55;6.60;;;;;;;4.65;56.07;101131.41;5087535;28;20031;-77
2022/03/23 01:53:11;;;;;;;18.08;6.45;;;;;;;4.63;55.91;101134.13;5082093;28;20036;-77
2022/03/23 01:55:37;;;;;;;15.15;6.40;;;;;;;4.65;55.92;101129.63;5082219;28;20028;-75
2022/03/23 01:58:03;;;;;;;15.50;6.40;;;;;;;4.78;55.86;101134.97;5083952;28;20076;-75
2022/03/23 02:00:29;;;;;;;18.92;6.70;;;;;;;5.15;54.62;101138.88;5081776;28;20321;-75
2022/03/23 02:02:55;;;;;;;25.95;7.63;;;;;;;4.93;55.30;101133.22;5082916;28;20525;-75
2022/03/23 02:05:20;;;;;;;28.55;9.18;;;;;;;5.37;53.88;101134.00;5082405;28;20297;-75
2022/03/23 02:07:46;;;;;;;29.17;9.18;;;;;;;5.45;53.79;101139.63;5086042;28;20050;-77
2022/03/23 02:10:12;;;;;;;23.85;8.25;;;;;;;5.70;52.90;101138.94;5089780;28;20250;-76
2022/03/23 02:12:38;;;;;;;25.33;7.88;;;;;;;5.50;53.79;101141.13;5090159;28;20033;-77
2022/03/23 02:15:14;;;;;;;23.05;8.32;;;;;;;5.11;54.26;101127.69;5085843;28;20044;-75
2022/03/23 02:17:40;;;;;;;27.10;7.90;;;;;;;5.42;53.69;101126.69;5089395;28;20036;-75
2022/03/23 02:20:07;;;;;;;29.30;9.32;;;;;;;5.47;53.99;101142.16;5088768;28;20172;-77
2022/03/23 02:22:32;;;;;;;28.20;9.68;;;;;;;5.09;54.94;101126.13;5087614;28;20028;-76
2022/03/23 02:24:58;;;;;;;28.50;9.85;;;;;;;5.16;54.56;101126.56;5091911;28;20085;-77
2022/03/23 02:27:25;;;;;;;25.63;8.77;;;;;;;5.10;54.40;101130.44;5085526;28;20439;-75
2022/03/23 02:29:52;;;;;;;29.60;12.20;;;;;;;5.51;53.66;101137.56;5085323;28;20100;-75
2022/03/23 02:32:18;;;;;;;33.95;10.70;;;;;;;5.58;53.23;101133.63;5089273;28;20074;-78
2022/03/23 02:34:43;;;;;;;33.53;10.68;;;;;;;5.23;53.84;101106.91;5087726;28;20036;-77
2022/03/23 02:37:09;;;;;;;25.50;10.20;;;;;;;5.35;53.68;101121.91;5086331;28;20100;-73
2022/03/23 02:39:35;;;;;;;26.50;11.35;;;;;;;4.98;55.23;101136.41;5088424;28;20306;-74
2022/03/23 02:42:01;;;;;;;26.80;10.88;;;;;;;4.70;56.11;101131.97;5089511;28;20100;-73
2022/03/23 02:44:26;;;;;;;28.95;10.65;;;;;;;4.77;56.30;101125.44;5086565;28;20048;-74
2022/03/23 02:46:52;;;;;;;30.52;10.23;;;;;;;5.14;54.94;101135.41;5089559;28;20044;-73
2022/03/23 02:49:20;;;;;;;27.95;10.77;;;;;;;5.29;54.74;101135.44;5084829;28;20040;-74
2022/03/23 02:51:46;;;;;;;26.75;10.20;;;;;;;5.29;53.85;101122.28;5088856;28;20289;-74
2022/03/23 03:02:45;;;;;;;20.83;9.65;;;;;;;5.63;52.28;101121.03;5087828;28;20035;-73
2022/03/23 03:05:11;;;;;;;24.67;10.95;;;;;;;5.52;52.43;101139.25;5087841;28;20020;-73
2022/03/23 03:10:23;;;;;;;32.30;9.48;;;;;;;5.48;50.93;101132.50;5089437;28;20043;-73
2022/03/23 03:12:50;;;;;;;11.50;4.20;;;;;;;5.34;50.96;101131.56;5086319;28;20028;-75
2022/03/23 03:15:16;;;;;;;9.30;3.00;;;;;;;5.52;50.16;101137.47;5084551;28;20099;-78
2022/03/23 03:17:42;;;;;;;8.98;2.47;;;;;;;5.74;49.28;101137.81;5088154;28;20017;-75
2022/03/23 03:20:09;;;;;;;7.90;2.90;;;;;;;6.07;48.45;101128.72;5085405;28;20333;-75
2022/03/23 03:22:40;;;;;;;12.63;3.20;;;;;;;6.45;47.01;101123.63;5087895;28;20040;-75
2022/03/23 03:25:17;;;;;;;8.77;2.97;;;;;;;6.74;46.38;101132.19;5088971;28;20041;-75
2022/03/23 03:27:44;;;;;;;5.45;2.78;;;;;;;7.00;45.03;101119.88;5083849;28;20322;-75
2022/03/23 03:30:12;;;;;;;7.30;2.70;;;;;;;6.98;45.29;101112.09;5088450;28;20238;-77
2022/03/23 03:32:39;;;;;;;13.02;5.07;;;;;;;7.10;46.11;101122.72;5088278;28;20375;-77
2022/03/23 03:35:07;;;;;;;8.13;3.70;;;;;;;7.02;46.53;101117.97;5085212;28;20043;-75
2022/03/23 03:37:33;;;;;;;10.70;4.35;;;;;;;6.96;44.95;101113.97;5086389;28;20024;-77
2022/03/23 03:39:59;;;;;;;8.15;3.35;;;;;;;6.70;45.63;101120.19;5089527;28;20046;-76
2022/03/23 03:42:26;;;;;;;10.45;3.38;;;;;;;6.81;45.03;101116.81;5084807;28;20032;-77
2022/03/23 03:44:51;;;;;;;10.85;2.75;;;;;;;6.88;45.04;101112.81;5086526;28;20099;-77
2022/03/23 03:47:18;;;;;;;12.70;4.63;;;;;;;7.02;45.29;101112.72;5088013;28;20223;-76
2022/03/23 03:49:44;;;;;;;15.90;5.03;;;;;;;7.03;44.99;101109.13;5086589;28;20040;-75
2022/03/23 03:52:09;;;;;;;49.55;18.92;;;;;;;6.89;45.88;101115.34;5086565;28;20263;-76
2022/03/23 03:54:35;;;;;;;65.68;28.02;;;;;;;6.63;45.75;101089.97;5084815;28;20070;-75
2022/03/23 03:57:00;;;;;;;26.40;10.20;;;;;;;6.74;46.32;101108.50;5083716;28;20024;-75
2022/03/23 03:59:25;;;;;;;20.42;8.13;;;;;;;6.66;46.53;101098.50;5085389;28;20024;-76
2022/03/23 04:01:51;;;;;;;15.57;5.10;;;;;;;6.61;46.87;101105.00;5084234;28;20099;-78
2022/03/23 04:04:17;;;;;;;17.45;4.40;;;;;;;6.49;47.82;101105.84;5084524;28;20024;-75
2022/03/23 04:06:42;;;;;;;13.95;5.32;;;;;;;6.47;48.09;101090.16;5085000;28;20358;-77
2022/03/23 04:09:08;;;;;;;16.60;4.93;;;;;;;6.62;48.31;101109.31;5090833;28;20024;-75
2022/03/23 04:11:35;;;;;;;11.77;4.93;;;;;;;6.65;47.49;101093.31;5086456;28;20036;-76
2022/03/23 04:14:01;;;;;;;11.70;5.03;;;;;;;6.72;47.56;101105.97;5083647;28;20032;-75
2022/03/23 04:16:26;;;;;;;11.45;4.90;;;;;;;6.41;47.89;101119.50;5082270;28;20093;-77
2022/03/23 04:18:52;;;;;;;21.90;7.00;;;;;;;5.80;49.88;101118.19;5081002;28;20096;-75
2022/03/23 04:21:17;;;;;;;19.67;8.05;;;;;;;5.71;50.44;101131.91;5088215;28;20412;-76
2022/03/23 04:23:43;;;;;;;19.92;7.57;;;;;;;5.37;52.03;101136.63;5084908;28;20095;-77
2022/03/23 04:26:08;;;;;;;25.38;8.75;;;;;;;4.90;54.05;101112.41;5084281;28;20087;-75
2022/03/23 04:28:34;;;;;;;26.55;9.10;;;;;;;4.63;54.85;101146.38;5086317;28;20516;-75
2022/03/23 04:31:01;;;;;;;28.83;9.18;;;;;;;4.45;55.44;101120.28;5082451;28;20028;-77
2022/03/23 04:33:27;;;;;;;38.25;9.57;;;;;;;4.26;56.31;101145.91;5087095;28;20293;-76
2022/03/23 04:35:52;;;;;;;26.08;10.00;;;;;;;3.85;57.36;101120.22;5090931;28;20073;-77
2022/03/23 04:38:17;;;;;;;21.63;8.50;;;;;;;3.91;57.85;101144.38;5083819;28;20024;-74
2022/03/23 04:40:43;;;;;;;21.87;9.00;;;;;;;3.96;57.57;101144.97;5084322;28;20348;-73
2022/03/23 04:43:08;;;;;;;27.55;9.52;;;;;;;4.01;57.37;101142.94;5082917;28;20100;-73
2022/03/23 04:45:34;;;;;;;27.55;11.43;;;;;;;3.84;57.68;101136.03;5083962;28;20078;-73
2022/03/23 04:47:59;;;;;;;28.13;10.10;;;;;;;3.84;57.76;101147.34;5083536;28;20430;-73
2022/03/23 04:50:25;;;;;;;29.47;10.07;;;;;;;3.87;57.66;101129.75;5082246;28;20040;-75
2022/03/23 04:52:52;;;;;;;21.80;9.17;;;;;;;3.66;57.95;101130.03;5087915;28;20024;-74
2022/03/23 04:55:18;;;;;;;21.03;8.53;;;;;;;3.84;58.09;101134.25;5083018;28;20214;-75
2022/03/23 04:57:44;;;;;;;24.60;9.52;;;;;;;3.98;58.01;101132.63;5081371;28;20231;-73
2022/03/23 05:00:13;;;;;;;31.98;10.02;;;;;;;4.01;57.31;101141.16;5079266;28;20008;-73
2022/03/23 05:02:39;;;;;;;27.98;10.55;;;;;;;4.09;57.06;101144.19;5082826;28;20028;-73
2022/03/23 05:05:10;;;;;;;27.23;9.77;;;;;;;4.03;57.75;101146.31;5083109;28;20044;-74
2022/03/23 05:07:35;;;;;;;23.52;10.00;;;;;;;4.16;57.18;101145.56;5084873;28;20314;-73
2022/03/23 05:10:02;;;;;;;26.37;9.63;;;;;;;4.38;56.70;101150.44;5083681;28;20038;-73
2022/03/23 05:12:28;;;;;;;32.00;8.85;;;;;;;4.38;56.88;101149.59;5082773;28;20225;-77
2022/03/23 05:14:53;;;;;;;30.70;9.30;;;;;;;4.43;56.50;101127.41;5083202;28;20025;-76
2022/03/23 05:17:19;;;;;;;26.05;9.98;;;;;;;4.58;56.30;101146.66;5083049;28;20102;-75
2022/03/23 05:19:45;;;;;;;27.40;9.55;;;;;;;4.65;56.42;101149.75;5082230;28;20033;-77
2022/03/23 05:22:11;;;;;;;27.52;10.40;;;;;;;4.40;56.97;101150.34;5086256;28;20099;-77
2022/03/23 05:24:37;;;;;;;26.20;9.93;;;;;;;4.67;56.21;101153.16;5082613;28;20050;-76
2022/03/23 05:27:04;;;;;;;22.92;9.00;;;;;;;4.53;56.64;101140.84;5084589;28;20036;-77
2022/03/23 05:29:29;;;;;;;25.27;9.82;;;;;;;4.90;56.02;101152.63;5083773;28;20036;-77
2022/03/23 05:31:55;;;;;;;25.95;10.98;;;;;;;4.85;55.65;101140.72;5086858;28;20020;-75
2022/03/23 05:34:20;;;;;;;24.58;11.23;;;;;;;4.77;55.70;101149.88;5082519;28;20044;-77
2022/03/23 05:36:46;;;;;;;27.42;11.90;;;;;;;4.89;55.80;101150.94;5085867;28;20062;-78
2022/03/23 05:39:12;;;;;;;32.20;12.13;;;;;;;5.09;55.32;101147.97;5084135;28;20036;-75
2022/03/23 05:41:38;;;;;;;33.38;12.32;;;;;;;5.11;54.75;101158.38;5089425;28;20039;-77
2022/03/23 05:44:04;;;;;;;24.85;11.75;;;;;;;5.56;53.52;101162.63;5088050;28;20037;-77
2022/03/23 05:46:30;;;;;;;27.52;10.43;;;;;;;6.33;52.19;101162.09;5086653;28;20326;-77
2022/03/23 05:48:56;;;;;;;26.33;8.85;;;;;;;6.35;50.62;101165.47;5086492;28;20044;-77
2022/03/23 05:51:23;;;;;;;20.83;8.82;;;;;;;6.60;49.92;101142.81;5086398;28;20218;-76
2022/03/23 05:53:49;;;;;;;21.55;8.98;;;;;;;6.97;50.31;101168.34;5086551;28;20107;-78
2022/03/23 05:56:14;;;;;;;24.65;8.90;;;;;;;7.29;49.08;101163.50;5086484;28;20104;-75
2022/03/23 05:58:40;;;;;;;24.65;9.55;;;;;;;7.52;48.21;101148.72;5086327;28;20097;-75
2022/03/23 06:01:05;;;;;;;24.13;8.90;;;;;;;7.61;48.39;101165.69;5086369;28;20339;-77
2022/03/23 06:03:31;;;;;;;23.88;9.10;;;;;;;7.83;47.36;101160.56;5086282;28;20091;-75
2022/03/23 06:05:57;;;;;;;29.08;10.07;;;;;;;8.10;47.48;101164.81;5096003;28;20024;-72
2022/03/23 06:08:22;;;;;;;22.80;9.05;;;;;;;8.62;46.32;101168.00;5106222;28;20039;-75
2022/03/23 06:10:48;;;;;;;29.27;9.35;;;;;;;9.07;44.09;101154.88;5105673;28;20040;-74
2022/03/23 06:13:15;;;;;;;25.55;9.20;;;;;;;9.14;44.10;101169.31;5105405;28;20039;-74
2022/03/23 06:15:41;;;;;;;24.40;9.65;;;;;;;9.31;43.52;101125.72;5105591;28;20036;-73
2022/03/23 06:18:06;;;;;;;22.75;7.90;;;;;;;9.52;43.16;101171.66;5105481;28;20100;-74
2022/03/23 06:20:32;;;;;;;21.48;7.43;;;;;;;9.45;42.85;101166.97;5104050;28;20349;-73
2022/03/23 06:22:57;;;;;;;20.85;7.28;;;;;;;10.01;41.81;101164.25;5105441;28;20035;-75
2022/03/23 06:25:26;;;;;;;17.50;6.88;;;;;;;10.20;41.34;101157.38;5105341;28;20218;-75
2022/03/23 06:27:52;;;;;;;14.98;6.88;;;;;;;10.49;40.76;101157.66;5104026;28;20024;-74
2022/03/23 06:30:18;;;;;;;13.73;7.15;;;;;;;10.67;40.44;101151.78;5105308;28;20065;-75
2022/03/23 06:32:43;;;;;;;25.55;8.13;;;;;;;10.64;40.30;101158.19;5105514;28;20204;-74
2022/03/23 06:35:09;;;;;;;17.92;6.90;;;;;;;10.83;40.25;101166.28;5105099;28;20218;-75
2022/03/23 06:37:35;;;;;;;17.63;6.55;;;;;;;11.09;39.26;101156.09;5092695;28;20063;-75
2022/03/23 06:40:01;;;;;;;13.02;5.72;;;;;;;11.36;38.64;101150.25;5094389;28;20051;-74
2022/03/23 06:42:27;;;;;;;25.65;6.68;;;;;;;11.11;38.33;101154.16;5086793;28;20023;-73
2022/03/23 06:44:53;;;;;;;18.45;5.78;;;;;;;11.20;38.66;101155.19;5088571;28;20036;-75
2022/03/23 06:47:19;;;;;;;20.10;5.57;;;;;;;10.97;38.30;101145.72;5093605;28;20077;-76
2022/03/23 06:49:44;;;;;;;22.90;6.93;;;;;;;11.12;39.10;101141.75;5085439;28;20103;-75
2022/03/23 06:52:10;;;;;;;26.90;6.00;;;;;;;11.52;38.23;101108.19;5104018;28;20032;-73
2022/03/23 06:54:35;;;;;;;14.30;6.07;;;;;;;11.85;37.72;101159.28;5101360;28;20266;-75
2022/03/23 06:57:00;;;;;;;15.95;5.43;;;;;;;12.22;36.66;101148.03;5086144;28;20024;-75
2022/03/23 06:59:26;;;;;;;12.52;5.20;;;;;;;12.65;35.51;101147.63;5085785;28;20211;-75
2022/03/23 07:01:51;;;;;;;25.58;6.80;;;;;;;12.66;35.11;101118.25;5087064;28;20036;-74
2022/03/23 07:04:17;;;;;;;30.85;7.28;;;;;;;12.98;35.64;101138.34;5092756;28;20028;-74
2022/03/23 07:06:42;;;;;;;15.13;7.10;;;;;;;12.88;35.07;101149.00;5087358;28;20023;-74
2022/03/23 07:11:52;;;;;;;15.60;5.78;;;;;;;12.64;35.47;101140.63;5088649;28;20028;-73
2022/03/23 07:14:17;;;;;;;11.57;5.20;;;;;;;12.49;35.47;101147.34;5087914;28;20028;-74
2022/03/23 07:16:43;;;;;;;23.13;6.13;;;;;;;12.57;35.14;101132.41;5089077;28;20325;-74
2022/03/23 07:19:09;;;;;;;12.30;5.57;;;;;;;12.81;34.38;101144.38;5087578;28;20321;-74
2022/03/23 07:21:35;;;;;;;16.88;6.68;;;;;;;13.15;34.66;101147.41;5085322;28;20028;-75
2022/03/23 07:24:00;;;;;;;17.13;6.20;;;;;;;12.97;34.29;101139.31;5099702;28;20217;-76
2022/03/23 07:26:26;;;;;;;14.85;6.53;;;;;;;13.32;33.95;101142.19;5104672;28;20036;-75
2022/03/23 07:28:52;;;;;;;12.95;6.30;;;;;;;13.64;33.75;101136.47;5104044;28;20081;-76
2022/03/23 07:31:17;;;;;;;17.50;6.55;;;;;;;13.79;32.88;101135.97;5104144;28;20028;-75
2022/03/23 07:33:43;;;;;;;14.32;6.18;;;;;;;14.01;32.61;101139.06;5104316;28;20046;-75
2022/03/23 07:36:12;;;;;;;14.77;5.95;;;;;;;14.21;31.59;101137.09;5103903;28;20028;-74
2022/03/23 07:38:40;;;;;;;12.23;4.75;;;;;;;14.09;31.54;101118.81;5102596;28;20055;-74
2022/03/23 07:41:06;;;;;;;14.40;4.88;;;;;;;14.17;31.31;101125.06;5103155;28;20321;-75
2022/03/23 07:43:31;;;;;;;11.90;3.35;;;;;;;14.37;30.54;101137.25;5103500;28;20071;-74
2022/03/23 07:45:57;;;;;;;10.48;3.60;;;;;;;14.52;30.14;101116.25;5103758;28;20087;-74
2022/03/23 07:48:23;;;;;;;13.60;4.13;;;;;;;14.31;29.88;101107.72;5103884;28;20039;-74
2022/03/23 07:50:50;;;;;;;14.43;4.70;;;;;;;14.31;30.20;101113.03;5103459;28;20222;-75
2022/03/23 07:53:17;;;;;;;7.90;3.50;;;;;;;14.33;30.19;101122.56;5103410;28;20039;-74
2022/03/23 07:55:42;;;;;;;9.25;3.58;;;;;;;14.38;29.40;101120.25;5103593;28;20040;-74
2022/03/23 07:58:08;;;;;;;10.43;4.07;;;;;;;14.22;29.03;101095.31;5102053;28;20372;-75
2022/03/23 08:00:34;;;;;;;14.27;4.88;;;;;;;14.55;29.26;101097.28;5100245;28;20043;-73
2022/03/23 08:02:59;;;;;;;7.78;3.70;;;;;;;14.64;28.94;101104.38;5100894;28;20036;-73
2022/03/23 08:05:25;;;;;;;11.25;4.10;;;;;;;15.04;28.80;101110.13;5100446;28;20024;-74
2022/03/23 08:07:51;;;;;;;7.70;3.60;;;;;;;14.56;28.29;101096.28;5098814;28;20020;-75
2022/03/23 08:10:16;;;;;;;12.35;3.03;;;;;;;14.54;28.40;101102.75;5102025;28;20040;-75
2022/03/23 08:12:42;;;;;;;9.73;3.55;;;;;;;14.43;28.90;101111.84;5099660;28;20345;-75
2022/03/23 08:15:09;;;;;;;18.13;3.83;;;;;;;14.27;28.70;101104.50;5101170;28;20070;-76
2022/03/23 08:17:38;;;;;;;12.85;4.03;;;;;;;14.56;28.59;101100.78;5100645;28;20218;-75
2022/03/23 08:22:50;;;;;;;11.48;3.90;;;;;;;14.22;28.98;101095.31;5100788;28;20051;-75
2022/03/23 08:25:16;;;;;;;10.23;3.50;;;;;;;14.33;28.72;101106.56;5099452;28;20084;-75
2022/03/23 08:27:41;;;;;;;8.70;2.88;;;;;;;14.55;28.34;101105.28;5101394;28;20031;-73
2022/03/23 08:30:08;;;;;;;9.82;3.78;;;;;;;14.79;27.86;101106.47;5098734;28;20222;-75
2022/03/23 08:32:33;;;;;;;6.45;2.78;;;;;;;15.31;26.26;101101.94;5099526;28;20044;-74
2022/03/23 08:34:58;;;;;;;11.30;3.40;;;;;;;15.89;25.61;101098.53;5100516;28;20350;-74
2022/03/23 08:37:24;;;;;;;4.82;2.67;;;;;;;15.49;25.79;101099.19;5099453;28;20394;-75
2022/03/23 08:39:49;;;;;;;8.70;2.97;;;;;;;15.08;26.79;101092.81;5102372;28;20036;-75
2022/03/23 08:42:15;;;;;;;9.07;2.80;;;;;;;15.22;27.11;101092.22;5101241;28;20028;-76
2022/03/23 08:44:41;;;;;;;11.18;3.22;;;;;;;15.47;25.81;101096.69;5100004;28;20078;-75
2022/03/23 08:47:08;;;;;;;4.60;2.70;;;;;;;14.83;26.39;101092.69;5100673;28;20044;-75
2022/03/23 08:49:34;;;;;;;7.57;2.90;;;;;;;15.33;25.08;101092.78;5100047;28;20038;-73
2022/03/23 08:51:59;;;;;;;11.00;2.78;;;;;;;15.53;25.16;101090.69;5100279;28;20039;-73
2022/03/23 08:54:25;;;;;;;6.40;2.78;;;;;;;15.71;25.26;101089.81;5099995;28;20277;-74
2022/03/23 08:56:50;;;;;;;5.85;2.80;;;;;;;15.63;25.63;101087.94;5101281;28;20027;-75
2022/03/23 08:59:15;;;;;;;7.82;2.97;;;;;;;15.60;26.24;101083.78;5099091;28;20091;-74
2022/03/23 09:01:41;;;;;;;10.35;2.67;;;;;;;14.95;25.79;101086.09;5101114;28;20387;-73
2022/03/23 09:04:08;;;;;;;8.10;3.00;;;;;;;14.96;26.38;101081.59;5099952;28;20036;-73
2022/03/23 09:06:34;;;;;;;4.25;2.65;;;;;;;14.88;26.42;101090.38;5100744;28;20802;-75
2022/03/23 09:08:59;;;;;;;13.85;5.47;;;;;;;15.14;25.57;101073.50;5100089;28;20114;-75
2022/03/23 09:11:24;;;;;;;12.52;4.53;;;;;;;15.37;24.86;101081.78;5100038;28;20028;-74
2022/03/23 09:13:50;;;;;;;7.82;2.60;;;;;;;15.49;24.81;101064.47;5100534;28;20034;-73
2022/03/23 09:16:15;;;;;;;4.97;2.92;;;;;;;15.56;24.42;101069.00;5099714;28;20028;-73
2022/03/23 09:18:41;;;;;;;7.30;3.10;;;;;;;15.79;24.69;101063.13;5099829;28;20028;-75
2022/03/23 09:21:07;;;;;;;9.60;2.78;;;;;;;15.21;23.88;101069.22;5098639;28;20106;-72
2022/03/23 09:23:32;;;;;;;7.35;3.13;;;;;;;15.41;24.20;101067.13;5099723;28;20116;-75
2022/03/23 09:25:57;;;;;;;8.65;3.10;;;;;;;15.73;24.20;101050.44;5098417;28;20040;-74
2022/03/23 09:28:23;;;;;;;5.53;2.63;;;;;;;14.60;24.90;101055.03;5099249;28;20043;-75
2022/03/23 09:30:48;;;;;;;4.82;2.65;;;;;;;14.79;25.37;101053.16;5098317;28;20044;-75
2022/03/23 09:33:15;;;;;;;7.82;2.63;;;;;;;15.07;25.52;101038.63;5096192;28;20075;-73
2022/03/23 09:35:40;;;;;;;7.82;3.03;;;;;;;15.17;24.93;101044.69;5099078;28;20321;-73
2022/03/23 09:38:06;;;;;;;8.73;3.28;;;;;;;15.27;24.93;101050.72;5098313;28;20039;-72
2022/03/23 09:40:32;;;;;;;11.60;3.92;;;;;;;14.77;25.29;101039.97;5100188;28;20064;-75
2022/03/23 09:43:19;;;;;;;6.80;2.95;;;;;;;14.82;26.54;101043.00;5099306;28;20051;-73
2022/03/23 09:48:11;;;;;;;8.40;3.45;;;;;;;14.74;25.42;101047.47;5098570;28;20035;-74
2022/03/23 09:50:43;;;;;;;10.82;3.10;;;;;;;14.50;25.04;101035.59;5099650;28;20314;-72
2022/03/23 09:53:08;;;;;;;13.15;4.32;;;;;;;14.57;25.62;101043.84;5100264;28;20305;-74
2022/03/23 09:55:34;;;;;;;12.50;3.25;;;;;;;14.63;25.45;101032.56;5099111;28;20036;-74
2022/03/23 09:58:01;;;;;;;8.60;2.83;;;;;;;14.79;25.09;101014.00;5099946;28;20376;-75
2022/03/23 10:00:33;;;;;;;9.05;3.15;;;;;;;14.75;25.37;101025.13;5097024;28;20048;-75
2022/03/23 10:03:11;;;;;;;9.27;2.95;;;;;;;14.81;24.31;101027.16;5100406;28;20047;-75
2022/03/23 10:06:11;;;;;;;5.07;2.47;;;;;;;14.59;25.29;101026.72;5099981;28;20040;-75
2022/03/23 10:09:11;;;;;;;7.72;2.40;;;;;;;14.44;25.24;101022.91;5098712;28;20092;-75
2022/03/23 10:12:32;;;;;;;10.73;2.85;;;;;;;14.62;25.74;101010.41;5099043;28;20036;-73
2022/03/23 10:15:35;;;;;;;12.95;3.25;;;;;;;14.57;24.82;101009.19;5099215;28;20036;-73
2022/03/23 10:18:38;;;;;;;7.88;3.10;;;;;;;14.64;25.54;101008.41;5097215;28;20031;-75
2022/03/23 10:21:03;;;;;;;6.38;2.65;;;;;;;14.51;26.06;100988.47;5098468;28;20043;-73
2022/03/23 10:23:30;;;;;;;20.90;4.40;;;;;;;14.67;26.71;100993.94;5097373;28;20042;-75
2022/03/23 10:25:57;;;;;;;31.67;5.20;;;;;;;14.79;26.22;101000.66;5093656;28;20024;-73
2022/03/23 10:28:23;;;;;;;7.63;2.90;;;;;;;14.41;26.23;100991.22;5093527;28;20281;-72
2022/03/23 10:30:48;;;;;;;10.32;2.95;;;;;;;14.46;27.08;100964.13;5097799;28;20040;-75
2022/03/23 10:33:19;;;;;;;8.18;2.60;;;;;;;14.68;26.19;100987.59;5095804;28;20095;-73
2022/03/23 10:35:44;;;;;;;15.90;3.75;;;;;;;14.83;26.19;100985.19;5096937;28;20236;-74
2022/03/23 10:38:28;;;;;;;4.95;2.63;;;;;;;14.74;25.15;100970.97;5098254;28;20055;-72
2022/03/23 10:40:53;;;;;;;8.25;3.13;;;;;;;14.82;25.98;100979.00;5097874;28;20075;-74
2022/03/23 10:43:22;;;;;;;9.27;2.65;;;;;;;14.71;25.84;100973.13;5096640;28;20028;-75
2022/03/23 10:45:47;;;;;;;4.90;2.50;;;;;;;14.58;24.89;100966.38;5097588;28;20036;-75
2022/03/23 10:48:16;;;;;;;3.55;2.50;;;;;;;13.98;25.14;100963.59;5094768;28;20045;-74
2022/03/23 10:50:58;;;;;;;8.63;2.70;;;;;;;13.84;25.52;100966.81;5097302;28;20026;-75
2022/03/23 10:53:41;;;;;;;7.75;2.70;;;;;;;14.02;26.74;100954.31;5095907;28;20184;-75
2022/03/23 10:56:07;;;;;;;6.20;2.47;;;;;;;14.13;27.70;100950.56;5095491;28;20218;-75
2022/03/23 10:58:34;;;;;;;7.65;2.90;;;;;;;14.25;26.63;100949.31;5098290;28;20095;-74
2022/03/23 11:01:05;;;;;;;16.40;2.85;;;;;;;14.37;26.86;100944.56;5097195;28;20044;-75
2022/03/23 11:03:43;;;;;;;5.90;2.55;;;;;;;14.30;26.12;100947.00;5094150;28;20032;-75
2022/03/23 11:06:10;;;;;;;6.72;2.38;;;;;;;14.39;25.97;100932.75;5097272;28;20044;-72
2022/03/23 11:08:36;;;;;;;14.55;3.70;;;;;;;14.56;26.24;100936.38;5097742;28;20035;-73
2022/03/23 11:16:27;;;;;;;10.60;2.72;;;;;;;14.57;25.01;100908.75;5096547;28;20110;-73
2022/03/23 11:19:10;;;;;;;4.93;1.88;;;;;;;14.51;26.46;100913.84;5095865;28;20039;-74
2022/03/23 11:22:04;;;;;;;10.75;3.10;;;;;;;14.78;25.54;100907.50;5093629;28;20047;-73
2022/03/23 11:24:38;;;;;;;6.83;2.80;;;;;;;14.75;25.66;100895.31;5097293;28;20143;-73
2022/03/23 11:27:06;;;;;;;10.35;2.40;;;;;;;14.73;24.94;100893.81;5095981;28;20040;-73
2022/03/23 11:29:33;;;;;;;10.77;5.97;;;;;;;14.81;25.61;100889.34;5096305;28;20047;-75
2022/03/23 11:32:08;;;;;;;16.13;6.95;;;;;;;14.79;26.10;100878.00;5097620;28;20057;-75
2022/03/23 11:34:36;;;;;;;7.50;2.88;;;;;;;14.91;22.39;100898.03;5097616;28;20090;-75
2022/03/23 11:37:03;;;;;;;7.38;2.70;;;;;;;14.93;23.11;100887.22;5097780;28;20329;-75
2022/03/23 11:39:29;;;;;;;4.65;2.10;;;;;;;14.53;22.11;100890.53;5095215;28;20028;-76
2022/03/23 11:41:55;;;;;;;6.75;2.50;;;;;;;14.55;23.12;100891.22;5097054;28;20050;-80
2022/03/23 11:44:21;;;;;;;4.70;2.28;;;;;;;14.66;22.85;100881.13;5097070;28;20030;-80
2022/03/23 11:46:47;;;;;;;8.05;2.08;;;;;;;14.63;22.78;100884.13;5096660;28;20036;-80